createdAt,value
2022-10-22T00:00:00.301Z,98652.28
2022-10-22T00:02:28.035Z,98656.59
2022-10-22T00:04:57.196Z,98663.38
2022-10-22T00:07:24.288Z,98660.34
2022-10-22T00:09:51.612Z,98644.31
2022-10-22T00:12:19.002Z,98645.37
2022-10-22T00:14:46.758Z,98647.53
2022-10-22T00:17:13.949Z,98650.25
2022-10-22T00:19:41.030Z,98647.19
2022-10-22T00:22:10.139Z,98651.81
2022-10-22T00:24:38.508Z,98648.25
2022-10-22T00:27:06.533Z,98644.72
2022-10-22T00:29:33.571Z,98635.44
2022-10-22T00:32:00.337Z,98634.38
2022-10-22T00:34:27.211Z,98633.56
2022-10-22T00:36:54.415Z,98625.34
2022-10-22T00:39:23.791Z,98621.25
2022-10-22T00:41:53.156Z,98608.19
2022-10-22T00:44:57.449Z,98614.69
2022-10-22T00:47:26.126Z,98616.59
2022-10-22T00:49:54.042Z,98617.09
2022-10-22T00:52:22.141Z,98612.16
2022-10-22T00:54:49.295Z,98601.81
2022-10-22T00:57:17.792Z,98608.31
2022-10-22T00:59:45.571Z,98605.03
2022-10-22T01:02:12.520Z,98603.91
2022-10-22T01:04:40.427Z,98603.06
2022-10-22T01:07:07.453Z,98606.31
2022-10-22T01:09:50.445Z,98600.06
2022-10-22T01:12:42.184Z,98606.31
2022-10-22T01:15:43.280Z,98606.50
2022-10-22T01:18:38.151Z,98611.94
2022-10-22T01:21:15.438Z,98614.03
2022-10-22T01:24:09.408Z,98619.97
2022-10-22T01:26:58.209Z,98611.28
2022-10-22T01:29:39.115Z,98582.75
2022-10-22T01:32:17.127Z,98559.91
2022-10-22T01:34:49.483Z,98571.84
2022-10-22T01:37:20.791Z,98575.37
2022-10-22T01:39:49.679Z,98579.41
2022-10-22T01:42:16.593Z,98577.78
2022-10-22T01:44:43.611Z,98574.50
2022-10-22T01:47:25.655Z,98568.75
2022-10-22T01:50:07.499Z,98575.81
2022-10-22T01:52:42.984Z,98570.28
2022-10-22T01:55:29.715Z,98574.09
2022-10-22T01:58:24.147Z,98557.81
2022-10-22T02:01:06.484Z,98559.94
2022-10-22T02:03:44.145Z,98551.81
2022-10-22T02:06:18.840Z,98551.81
2022-10-22T02:08:48.903Z,98537.37
2022-10-22T02:11:16.484Z,98539.25
2022-10-22T02:13:48.429Z,98542.78
2022-10-22T02:16:28.773Z,98534.91
2022-10-22T02:19:01.708Z,98527.03
2022-10-22T02:21:28.775Z,98518.06
2022-10-22T02:23:55.906Z,98512.06
2022-10-22T02:26:46.439Z,98512.59
2022-10-22T02:29:25.590Z,98500.09
2022-10-22T02:31:57.004Z,98505.53
2022-10-22T02:34:27.885Z,98499.19
2022-10-22T02:36:55.628Z,98504.31
2022-10-22T02:39:23.548Z,98514.31
2022-10-22T02:41:50.421Z,98515.66
2022-10-22T02:44:21.361Z,98522.16
2022-10-22T02:46:48.834Z,98528.41
2022-10-22T02:49:15.681Z,98515.09
2022-10-22T02:51:42.600Z,98507.19
2022-10-22T02:54:09.584Z,98500.97
2022-10-22T02:56:36.706Z,98494.72
2022-10-22T02:59:10.854Z,98501.22
2022-10-22T03:01:39.367Z,98499.81
2022-10-22T03:04:09.429Z,98492.75
2022-10-22T03:06:36.630Z,98492.75
2022-10-22T03:09:03.861Z,98495.47
2022-10-22T03:11:30.839Z,98502.44
2022-10-22T03:13:57.980Z,98498.06
2022-10-22T03:16:24.890Z,98507.28
2022-10-22T03:18:51.811Z,98504.56
2022-10-22T03:21:34.351Z,98508.34
2022-10-22T03:24:05.897Z,98502.91
2022-10-22T03:26:33.854Z,98498.31
2022-10-22T03:29:01.326Z,98498.00
2022-10-22T03:31:28.486Z,98508.84
2022-10-22T03:33:55.621Z,98495.53
2022-10-22T03:36:22.535Z,98481.66
2022-10-22T03:38:49.930Z,98478.13
2022-10-22T03:41:17.154Z,98488.97
2022-10-22T03:43:49.601Z,98494.09
2022-10-22T03:46:16.537Z,98485.38
2022-10-22T03:48:43.294Z,98482.09
2022-10-22T03:51:10.538Z,98497.31
2022-10-22T03:53:37.549Z,98497.31
2022-10-22T03:56:10.073Z,98495.09
2022-10-22T03:58:38.250Z,98492.94
2022-10-22T04:01:10.652Z,98495.09
2022-10-22T04:03:37.936Z,98479.66
2022-10-22T04:06:13.889Z,98472.59
2022-10-22T04:08:42.427Z,98480.97
2022-10-22T04:11:10.425Z,98468.47
2022-10-22T04:13:37.683Z,98470.59
2022-10-22T04:16:27.581Z,98485.47
2022-10-22T04:18:57.138Z,98485.47
2022-10-22T04:21:24.397Z,98496.00
2022-10-22T04:23:53.160Z,98491.66
2022-10-22T04:26:21.116Z,98484.34
2022-10-22T04:28:50.130Z,98487.53
2022-10-22T04:31:22.858Z,98494.03
2022-10-22T04:33:58.635Z,98489.12
2022-10-22T04:36:26.332Z,98492.66
2022-10-22T04:38:56.080Z,98495.59
2022-10-22T04:41:28.952Z,98502.09
2022-10-22T04:43:56.593Z,98488.78
2022-10-22T04:46:25.453Z,98491.50
2022-10-22T04:48:52.842Z,98495.75
2022-10-22T04:51:21.751Z,98496.25
2022-10-22T04:53:49.081Z,98508.72
2022-10-22T04:56:22.800Z,98510.88
2022-10-22T04:58:51.826Z,98504.63
2022-10-22T05:01:22.089Z,98504.63
2022-10-22T05:03:50.554Z,98500.53
2022-10-22T05:06:18.391Z,98510.78
2022-10-22T05:08:45.353Z,98503.72
2022-10-22T05:11:12.243Z,98497.25
2022-10-22T05:13:39.135Z,98497.50
2022-10-22T05:16:06.545Z,98495.84
2022-10-22T05:18:38.153Z,98486.09
2022-10-22T05:21:08.632Z,98484.44
2022-10-22T05:23:35.564Z,98494.22
2022-10-22T05:26:04.126Z,98502.00
2022-10-22T05:28:31.219Z,98497.09
2022-10-22T05:30:59.711Z,98488.16
2022-10-22T05:33:28.416Z,98477.56
2022-10-22T05:35:55.555Z,98485.69
2022-10-22T05:38:22.999Z,98487.81
2022-10-22T05:41:06.759Z,98491.34
2022-10-22T05:43:34.200Z,98494.06
2022-10-22T05:46:09.101Z,98498.66
2022-10-22T05:48:36.370Z,98502.41
2022-10-22T05:51:05.623Z,98508.06
2022-10-22T05:53:34.482Z,98505.59
2022-10-22T05:56:03.211Z,98494.19
2022-10-22T05:58:30.506Z,98494.94
2022-10-22T06:01:16.908Z,98494.13
2022-10-22T06:03:44.665Z,98498.22
2022-10-22T06:06:26.365Z,98495.28
2022-10-22T06:08:54.760Z,98495.28
2022-10-22T06:11:23.331Z,98494.19
2022-10-22T06:13:51.267Z,98483.38
2022-10-22T06:16:18.514Z,98484.44
2022-10-22T06:18:45.513Z,98486.91
2022-10-22T06:21:14.478Z,98492.56
2022-10-22T06:23:43.942Z,98499.87
2022-10-22T06:26:11.408Z,98501.25
2022-10-22T06:28:38.817Z,98503.16
2022-10-22T06:31:06.097Z,98502.81
2022-10-22T06:33:34.357Z,98509.88
2022-10-22T06:36:07.681Z,98524.00
2022-10-22T06:38:35.264Z,98521.28
2022-10-22T06:41:04.116Z,98520.22
2022-10-22T06:43:31.009Z,98524.31
2022-10-22T06:46:03.004Z,98527.03
2022-10-22T06:48:30.617Z,98547.63
2022-10-22T06:51:03.132Z,98535.97
2022-10-22T06:53:30.483Z,98539.28
2022-10-22T06:55:57.611Z,98551.50
2022-10-22T06:58:24.509Z,98537.16
2022-10-22T07:01:01.773Z,98539.34
2022-10-22T07:03:28.751Z,98522.03
2022-10-22T07:05:55.702Z,98531.31
2022-10-22T07:08:22.623Z,98533.53
2022-10-22T07:10:49.567Z,98540.09
2022-10-22T07:13:16.482Z,98529.00
2022-10-22T07:15:43.305Z,98539.09
2022-10-22T07:18:10.167Z,98529.44
2022-10-22T07:20:37.022Z,98534.34
2022-10-22T07:23:03.859Z,98540.09
2022-10-22T07:25:30.700Z,98560.22
2022-10-22T07:27:58.877Z,98563.81
2022-10-22T07:30:25.760Z,98574.75
2022-10-22T07:32:52.587Z,98579.69
2022-10-22T07:35:19.518Z,98579.75
2022-10-22T07:37:46.338Z,98570.31
2022-10-22T07:40:13.147Z,98572.50
2022-10-22T07:42:39.975Z,98587.22
2022-10-22T07:45:07.492Z,98603.78
2022-10-22T07:47:34.687Z,98606.84
2022-10-22T07:50:01.493Z,98612.63
2022-10-22T07:52:28.359Z,98616.75
2022-10-22T07:54:55.287Z,98610.00
2022-10-22T07:57:22.148Z,98602.69
2022-10-22T07:59:49.015Z,98606.53
2022-10-22T08:02:15.823Z,98617.12
2022-10-22T08:04:42.645Z,98608.25
2022-10-22T08:07:09.515Z,98610.47
2022-10-22T08:09:36.409Z,98617.88
2022-10-22T08:12:03.341Z,98615.47
2022-10-22T08:14:31.112Z,98617.44
2022-10-22T08:16:58.039Z,98632.94
2022-10-22T08:19:25.251Z,98629.72
2022-10-22T08:21:52.195Z,98625.47
2022-10-22T08:24:19.024Z,98618.72
2022-10-22T08:26:45.946Z,98625.53
2022-10-22T08:29:12.797Z,98651.34
2022-10-22T08:31:39.592Z,98676.91
2022-10-22T08:34:08.398Z,98685.62
2022-10-22T08:36:35.287Z,98683.22
2022-10-22T08:39:02.148Z,98671.88
2022-10-22T08:41:29.170Z,98669.50
2022-10-22T08:44:33.768Z,98680.94
2022-10-22T08:47:22.284Z,98690.22
2022-10-22T08:49:49.829Z,98685.09
2022-10-22T08:52:19.019Z,98673.72
2022-10-22T08:55:00.803Z,98684.06
2022-10-22T08:57:36.065Z,98696.06
2022-10-22T09:00:11.146Z,98707.28
2022-10-22T09:03:16.206Z,98720.09
2022-10-22T09:05:55.288Z,98715.81
2022-10-22T09:08:23.304Z,98718.56
2022-10-22T09:10:57.670Z,98719.72
2022-10-22T09:13:24.774Z,98697.25
2022-10-22T09:15:56.223Z,98708.16
2022-10-22T09:18:37.363Z,98715.81
2022-10-22T09:21:24.122Z,98715.03
2022-10-22T09:23:50.950Z,98717.00
2022-10-22T09:26:17.895Z,98730.63
2022-10-22T09:28:50.869Z,98720.94
2022-10-22T09:31:18.399Z,98707.63
2022-10-22T09:33:49.109Z,98701.69
2022-10-22T09:36:18.664Z,98710.16
2022-10-22T09:38:50.462Z,98703.13
2022-10-22T09:41:18.968Z,98717.31
2022-10-22T09:43:49.601Z,98723.91
2022-10-22T09:46:22.899Z,98734.25
2022-10-22T09:48:55.875Z,98739.19
2022-10-22T09:51:36.526Z,98737.03
2022-10-22T09:54:23.163Z,98735.13
2022-10-22T09:56:59.011Z,98722.91
2022-10-22T09:59:32.292Z,98722.41
2022-10-22T10:02:19.742Z,98727.03
2022-10-22T10:04:58.043Z,98730.31
2022-10-22T10:07:27.797Z,98736.56
2022-10-22T10:09:55.214Z,98733.59
2022-10-22T10:15:36.663Z,98729.53
2022-10-22T10:18:34.332Z,98738.50
2022-10-22T10:21:25.674Z,98749.72
2022-10-22T10:24:11.393Z,98750.28
2022-10-22T10:26:48.852Z,98748.38
2022-10-22T10:29:34.485Z,98747.03
2022-10-22T10:32:21.082Z,98747.34
2022-10-22T10:35:09.263Z,98737.84
2022-10-22T10:37:46.683Z,98734.59
2022-10-22T10:40:31.817Z,98738.44
2022-10-22T10:43:06.709Z,98742.28
2022-10-22T10:45:55.926Z,98742.87
2022-10-22T10:48:39.399Z,98733.94
2022-10-22T10:51:39.879Z,98731.50
2022-10-22T10:57:13.825Z,98725.84
2022-10-22T11:00:04.849Z,98751.47
2022-10-22T11:02:53.365Z,98754.50
2022-10-22T11:05:44.328Z,98748.53
2022-10-22T11:08:55.058Z,98741.75
2022-10-22T11:11:31.861Z,98740.41
2022-10-22T11:14:18.603Z,98743.69
2022-10-22T11:16:49.695Z,98744.25
2022-10-22T11:19:39.591Z,98749.16
2022-10-22T11:22:27.027Z,98744.53
2022-10-22T11:25:25.581Z,98756.00
2022-10-22T11:28:04.660Z,98760.34
2022-10-22T11:30:38.523Z,98773.72
2022-10-22T11:33:12.921Z,98781.87
2022-10-22T11:35:46.528Z,98782.69
2022-10-22T11:38:21.203Z,98783.50
2022-10-22T11:40:51.022Z,98778.06
2022-10-22T11:43:31.004Z,98783.25
2022-10-22T11:46:08.535Z,98791.41
2022-10-22T11:48:42.757Z,98787.38
2022-10-22T11:51:40.375Z,98788.47
2022-10-22T11:54:26.113Z,98796.37
2022-10-22T11:57:12.962Z,98787.38
2022-10-22T11:59:47.558Z,98781.13
2022-10-22T12:02:23.618Z,98782.50
2022-10-22T12:04:51.080Z,98777.88
2022-10-22T12:07:48.594Z,98763.44
2022-10-22T12:10:26.918Z,98784.13
2022-10-22T12:13:18.244Z,98789.59
2022-10-22T12:15:51.904Z,98787.41
2022-10-22T12:18:19.045Z,98790.13
2022-10-22T12:20:51.235Z,98787.41
2022-10-22T12:23:18.899Z,98784.44
2022-10-22T12:25:45.855Z,98782.53
2022-10-22T12:28:13.338Z,98773.28
2022-10-22T12:30:41.978Z,98767.56
2022-10-22T12:33:20.358Z,98782.00
2022-10-22T12:35:49.112Z,98771.66
2022-10-22T12:38:20.451Z,98772.50
2022-10-22T12:40:50.321Z,98771.12
2022-10-22T12:43:19.890Z,98764.59
2022-10-22T12:45:49.748Z,98773.06
2022-10-22T12:48:24.379Z,98779.94
2022-10-22T12:50:54.863Z,98772.31
2022-10-22T12:53:31.183Z,98773.69
2022-10-22T12:56:04.025Z,98766.34
2022-10-22T12:58:45.940Z,98767.72
2022-10-22T13:01:15.879Z,98761.19
2022-10-22T13:03:47.834Z,98757.09
2022-10-22T13:06:23.251Z,98760.66
2022-10-22T13:09:02.414Z,98753.84
2022-10-22T13:11:43.433Z,98763.69
2022-10-22T13:14:24.568Z,98774.31
2022-10-22T13:17:10.948Z,98773.25
2022-10-22T13:19:43.216Z,98768.63
2022-10-22T13:22:39.518Z,98767.25
2022-10-22T13:25:16.321Z,98764.53
2022-10-22T13:27:44.599Z,98759.69
2022-10-22T13:30:29.225Z,98765.13
2022-10-22T13:32:58.878Z,98754.22
2022-10-22T13:35:32.518Z,98768.41
2022-10-22T13:38:00.365Z,98774.66
2022-10-22T13:40:27.651Z,98773.03
2022-10-22T13:42:54.553Z,98772.22
2022-10-22T13:45:21.477Z,98774.94
2022-10-22T13:47:54.431Z,98774.13
2022-10-22T13:50:21.803Z,98773.28
2022-10-22T13:52:57.196Z,98779.56
2022-10-22T13:55:27.566Z,98778.97
2022-10-22T13:57:57.490Z,98787.16
2022-10-22T14:00:25.176Z,98787.41
2022-10-22T14:02:56.951Z,98782.22
2022-10-22T14:05:23.964Z,98784.13
2022-10-22T14:07:51.286Z,98787.13
2022-10-22T14:10:20.939Z,98792.81
2022-10-22T14:12:52.370Z,98791.16
2022-10-22T14:15:25.653Z,98788.72
2022-10-22T14:17:57.090Z,98795.25
2022-10-22T14:20:27.879Z,98787.34
2022-10-22T14:22:55.507Z,98782.16
2022-10-22T14:25:24.881Z,98790.31
2022-10-22T14:27:52.514Z,98802.03
2022-10-22T14:30:21.743Z,98795.22
2022-10-22T14:32:49.465Z,98799.28
2022-10-22T14:35:20.249Z,98802.28
2022-10-22T14:37:47.381Z,98811.53
2022-10-22T14:40:16.924Z,98809.06
2022-10-22T14:42:46.790Z,98816.41
2022-10-22T14:45:25.500Z,98810.97
2022-10-22T14:47:57.321Z,98816.66
2022-10-22T14:50:24.947Z,98819.63
2022-10-22T14:52:52.098Z,98827.81
2022-10-22T14:55:20.000Z,98828.63
2022-10-22T14:57:46.860Z,98830.81
2022-10-22T15:00:23.351Z,98832.97
2022-10-22T15:02:50.233Z,98835.69
2022-10-22T15:05:17.846Z,98840.31
2022-10-22T15:07:45.621Z,98839.75
2022-10-22T15:10:13.017Z,98845.19
2022-10-22T15:12:40.081Z,98838.38
2022-10-22T15:15:07.562Z,98844.09
2022-10-22T15:17:34.717Z,98844.34
2022-10-22T15:20:04.243Z,98845.16
2022-10-22T15:22:35.178Z,98840.81
2022-10-22T15:25:08.044Z,98843.78
2022-10-22T15:27:35.605Z,98839.97
2022-10-22T15:32:35.231Z,98836.69
2022-10-22T15:35:02.789Z,98829.59
2022-10-22T15:37:30.898Z,98819.28
2022-10-22T15:39:58.699Z,98828.53
2022-10-22T15:42:25.831Z,98824.97
2022-10-22T15:44:59.333Z,98833.41
2022-10-22T15:47:29.649Z,98822.53
2022-10-22T15:49:57.161Z,98839.69
2022-10-22T15:52:24.324Z,98838.31
2022-10-22T15:54:52.919Z,98844.81
2022-10-22T15:57:20.045Z,98833.13
2022-10-22T15:59:47.302Z,98837.47
2022-10-22T16:02:15.535Z,98843.16
2022-10-22T16:04:42.988Z,98843.16
2022-10-22T16:07:10.296Z,98854.31
2022-10-22T16:09:37.621Z,98858.09
2022-10-22T16:12:05.139Z,98864.38
2022-10-22T16:14:32.299Z,98853.75
2022-10-22T16:16:59.985Z,98852.66
2022-10-22T16:19:27.931Z,98841.47
2022-10-22T16:21:56.611Z,98841.22
2022-10-22T16:24:24.152Z,98840.66
2022-10-22T16:26:53.204Z,98835.47
2022-10-22T16:29:21.171Z,98828.69
2022-10-22T16:31:48.630Z,98826.47
2022-10-22T16:34:16.542Z,98832.47
2022-10-22T16:36:44.751Z,98845.28
2022-10-22T16:39:12.766Z,98862.44
2022-10-22T16:41:43.806Z,98877.94
2022-10-22T16:44:12.410Z,98873.59
2022-10-22T16:46:40.177Z,98887.19
2022-10-22T16:49:08.833Z,98884.47
2022-10-22T16:51:37.314Z,98888.84
2022-10-22T16:54:09.915Z,98883.66
2022-10-22T16:56:40.459Z,98895.06
2022-10-22T16:59:08.877Z,98889.88
2022-10-22T17:01:41.220Z,98896.41
2022-10-22T17:04:10.432Z,98892.03
2022-10-22T17:06:39.847Z,98895.00
2022-10-22T17:09:08.147Z,98903.69
2022-10-22T17:11:40.099Z,98900.41
2022-10-22T17:14:10.640Z,98899.81
2022-10-22T17:16:39.086Z,98900.34
2022-10-22T17:19:13.152Z,98897.03
2022-10-22T17:21:41.352Z,98901.34
2022-10-22T17:24:10.625Z,98905.69
2022-10-22T17:26:39.562Z,98917.06
2022-10-22T17:29:09.262Z,98917.84
2022-10-22T17:31:39.571Z,98928.97
2022-10-22T17:34:16.541Z,98924.03
2022-10-22T17:36:45.368Z,98933.25
2022-10-22T17:39:18.479Z,98932.94
2022-10-22T17:41:47.671Z,98928.84
2022-10-22T17:44:16.332Z,98931.25
2022-10-22T17:46:48.064Z,98930.94
2022-10-22T17:49:19.586Z,98928.72
2022-10-22T17:51:48.694Z,98936.06
2022-10-22T17:54:17.566Z,98931.34
2022-10-22T17:56:45.638Z,98938.94
2022-10-22T17:59:15.939Z,98930.72
2022-10-22T18:01:47.121Z,98931.22
2022-10-22T18:04:19.809Z,98927.69
2022-10-22T18:06:48.373Z,98935.28
2022-10-22T18:09:19.148Z,98944.19
2022-10-22T18:11:49.752Z,98946.34
2022-10-22T18:14:19.181Z,98952.50
2022-10-22T18:16:48.241Z,98956.28
2022-10-22T18:19:23.300Z,98953.47
2022-10-22T18:21:53.706Z,98951.00
2022-10-22T18:24:21.613Z,98953.16
2022-10-22T18:26:50.463Z,98953.66
2022-10-22T18:29:19.840Z,98955.22
2022-10-22T18:31:49.437Z,98962.56
2022-10-22T18:34:37.804Z,98957.37
2022-10-22T18:37:09.047Z,98959.53
2022-10-22T18:39:36.848Z,98967.56
2022-10-22T18:42:07.489Z,98974.31
2022-10-22T18:44:38.063Z,98971.59
2022-10-22T18:47:07.274Z,98973.75
2022-10-22T18:49:36.522Z,98976.16
2022-10-22T18:52:06.027Z,98974.75
2022-10-22T18:54:33.924Z,98980.94
2022-10-22T18:57:04.341Z,98977.88
2022-10-22T18:59:33.538Z,98981.88
2022-10-22T19:02:01.808Z,98993.25
2022-10-22T19:04:37.249Z,99004.38
2022-10-22T19:09:37.221Z,99002.37
2022-10-22T19:12:05.438Z,99001.00
2022-10-22T19:14:33.701Z,99002.56
2022-10-22T19:17:02.281Z,99006.34
2022-10-22T19:19:30.596Z,99008.47
2022-10-22T19:22:01.495Z,99020.28
2022-10-22T19:24:29.984Z,99015.34
2022-10-22T19:26:58.610Z,99025.63
2022-10-22T19:29:26.109Z,99027.78
2022-10-22T19:31:54.242Z,99037.56
2022-10-22T19:34:22.166Z,99038.38
2022-10-22T19:36:51.935Z,99034.50
2022-10-22T19:39:20.776Z,99046.69
2022-10-22T19:41:48.510Z,99057.78
2022-10-22T19:44:17.034Z,99056.63
2022-10-22T19:46:45.608Z,99064.19
2022-10-22T19:49:16.537Z,99063.47
2022-10-22T19:51:47.034Z,99065.13
2022-10-22T19:54:18.647Z,99061.59
2022-10-22T19:56:47.745Z,99067.50
2022-10-22T19:59:18.993Z,99074.00
2022-10-22T20:01:46.791Z,99066.34
2022-10-22T20:04:18.191Z,99070.59
2022-10-22T20:06:46.549Z,99076.03
2022-10-22T20:09:14.568Z,99076.03
2022-10-22T20:11:42.787Z,99074.88
2022-10-22T20:14:10.429Z,99070.50
2022-10-22T20:16:38.780Z,99073.22
2022-10-22T20:19:07.957Z,99088.06
2022-10-22T20:21:35.391Z,99090.78
2022-10-22T20:24:03.124Z,99092.56
2022-10-22T20:26:31.684Z,99088.19
2022-10-22T20:28:59.521Z,99096.59
2022-10-22T20:31:28.957Z,99103.31
2022-10-22T20:34:01.742Z,99104.63
2022-10-22T20:36:30.901Z,99098.03
2022-10-22T20:39:01.295Z,99098.50
2022-10-22T20:41:29.710Z,99111.25
2022-10-22T20:43:58.433Z,99112.06
2022-10-22T20:46:31.807Z,99111.47
2022-10-22T20:49:06.427Z,99109.22
2022-10-22T20:51:35.953Z,99110.28
2022-10-22T20:54:03.952Z,99105.91
2022-10-22T20:56:32.182Z,99113.94
2022-10-22T20:59:05.961Z,99110.88
2022-10-22T21:01:34.187Z,99109.22
2022-10-22T21:04:01.513Z,99113.00
2022-10-22T21:06:29.462Z,99112.19
2022-10-22T21:08:56.295Z,99117.59
2022-10-22T21:11:23.520Z,99108.87
2022-10-22T21:13:50.709Z,99115.38
2022-10-22T21:16:18.724Z,99116.87
2022-10-22T21:18:46.863Z,99121.22
2022-10-22T21:21:13.791Z,99122.72
2022-10-22T21:23:40.484Z,99126.50
2022-10-22T21:26:07.214Z,99115.91
2022-10-22T21:28:35.690Z,99118.03
2022-10-22T21:31:09.863Z,99115.53
2022-10-22T21:33:38.770Z,99120.62
2022-10-22T21:36:06.943Z,99126.50
2022-10-22T21:38:34.764Z,99109.66
2022-10-22T21:41:06.566Z,99106.94
2022-10-22T21:43:34.284Z,99104.47
2022-10-22T21:46:12.834Z,99107.41
2022-10-22T21:48:40.624Z,99110.59
2022-10-22T21:51:18.971Z,99118.34
2022-10-22T21:53:46.434Z,99114.22
2022-10-22T21:56:18.686Z,99123.66
2022-10-22T21:58:45.490Z,99120.34
2022-10-22T22:01:13.782Z,99122.00
2022-10-22T22:03:46.331Z,99123.87
2022-10-22T22:06:13.591Z,99123.53
2022-10-22T22:08:40.880Z,99120.81
2022-10-22T22:11:13.367Z,99125.66
2022-10-22T22:13:40.651Z,99131.31
2022-10-22T22:16:10.728Z,99127.75
2022-10-22T22:18:38.314Z,99119.28
2022-10-22T22:21:08.257Z,99118.44
2022-10-22T22:23:38.625Z,99118.69
2022-10-22T22:26:06.175Z,99123.94
2022-10-22T22:28:33.515Z,99132.06
2022-10-22T22:31:00.856Z,99137.72
2022-10-22T22:33:28.071Z,99138.78
2022-10-22T22:35:59.444Z,99138.66
2022-10-22T22:38:26.131Z,99137.00
2022-10-22T22:40:52.877Z,99132.41
2022-10-22T22:43:19.721Z,99138.31
2022-10-22T22:45:46.636Z,99123.34
2022-10-22T22:48:13.355Z,99127.09
2022-10-22T22:50:40.002Z,99126.50
2022-10-22T22:53:06.674Z,99125.91
2022-10-22T22:55:33.389Z,99118.84
2022-10-22T22:58:00.098Z,99122.81
2022-10-22T23:00:26.914Z,99123.87
2022-10-22T23:02:55.461Z,99121.88
2022-10-22T23:05:22.513Z,99132.69
2022-10-22T23:07:49.302Z,99124.81
2022-10-22T23:10:16.160Z,99127.75
2022-10-22T23:12:43.316Z,99129.03
2022-10-22T23:15:10.825Z,99119.84
2022-10-22T23:17:38.562Z,99131.16
2022-10-22T23:20:06.060Z,99134.31
2022-10-22T23:22:32.880Z,99137.03
2022-10-22T23:24:59.612Z,99134.16
2022-10-22T23:27:26.295Z,99142.28
2022-10-22T23:29:52.948Z,99134.63
2022-10-22T23:32:19.839Z,99133.78
2022-10-22T23:34:46.672Z,99135.91
2022-10-22T23:37:13.457Z,99128.84
2022-10-22T23:39:40.226Z,99123.41
2022-10-22T23:42:06.978Z,99118.69
2022-10-22T23:44:33.735Z,99124.09
2022-10-22T23:47:00.476Z,99129.75
2022-10-22T23:49:27.291Z,99120.31
2022-10-22T23:51:53.987Z,99129.47
2022-10-22T23:54:20.732Z,99133.16
2022-10-22T23:56:47.481Z,99131.94
